Terminal Aerodrome Forecast
Issued by NWS Jackson, KY

Home | Current Version | Previous Version | Text Only | Print | Product List | Glossary On
Versions: 1 2 3 4 5 6 7 8 9 10 11 12 13 14
364
FTUS43 KJKL 231001 AAC
TAFJKL
TAF AMD
KJKL 231001Z 2310/2406 26002KT 6SM BR FEW005 SCT100
     FM231200 25002KT P6SM FEW045 SCT090
     FM231700 29003KT P6SM SCT050 SCT100=

USA.gov is the U.S. government's official web portal to all federal, state and local government web resources and services.